Time;durP1;ratioP1;P1;durP2;ratioP2;P2;SDS_P1;SDS_P2;PMS_P1;PMS_P2;Temp;Humidity;BMP_temperature;BMP_pressure;BME280_temperature;BME280_humidity;BME280_pressure;Samples;Min_cycle;Max_cycle;Signal;HPM_P1;HPM_P2
2022/01/29 00:00:12;;;;;;;8.10;3.40;;;;;1.32;97650.60;;;;111857;1242;41916;-62
2022/01/29 00:03:01;;;;;;;8.70;4.30;;;;;1.30;97651.20;;;;111522;1242;42440;-63
2022/01/29 00:05:30;;;;;;;10.10;3.80;;;;;1.20;97651.40;;;;111880;1242;41250;-62
2022/01/29 00:08:00;;;;;;;9.20;4.10;;;;;1.20;97662.00;;;;111834;1242;42371;-67
2022/01/29 00:10:31;;;;;;;9.10;4.10;;;;;1.20;97674.80;;;;111768;1243;41197;-62
2022/01/29 00:13:00;;;;;;;9.00;4.00;;;;;1.20;97675.00;;;;111835;1241;41146;-62
2022/01/29 00:15:30;;;;;;;9.00;3.80;;;;;1.28;97679.80;;;;111578;1243;41441;-67
2022/01/29 00:17:59;;;;;;;8.60;3.80;;;;;1.24;97688.40;;;;111504;1244;41261;-62
2022/01/29 00:20:29;;;;;;;11.10;4.10;;;;;1.28;97695.60;;;;111518;1244;42348;-68
2022/01/29 00:22:58;;;;;;;7.70;3.70;;;;;1.22;97697.80;;;;111469;1244;41729;-61
2022/01/29 00:25:27;;;;;;;8.90;3.90;;;;;1.26;97705.20;;;;111752;1244;41861;-64
2022/01/29 00:27:59;;;;;;;8.80;3.50;;;;;1.30;97711.80;;;;111752;1244;41622;-62
2022/01/29 00:30:37;;;;;;;10.10;4.00;;;;;1.30;97711.40;;;;111770;1241;42207;-61
2022/01/29 00:33:06;;;;;;;7.80;3.30;;;;;1.30;97713.80;;;;111685;1244;41185;-64
2022/01/29 00:35:36;;;;;;;8.10;3.50;;;;;1.36;97716.00;;;;111672;1244;41279;-63
2022/01/29 00:38:06;;;;;;;6.90;3.10;;;;;1.40;97720.00;;;;111774;1241;41686;-66
2022/01/29 00:40:37;;;;;;;9.50;4.10;;;;;1.40;97719.20;;;;111412;1243;41598;-64
2022/01/29 00:43:06;;;;;;;8.10;3.60;;;;;1.40;97721.20;;;;111487;1244;41137;-63
2022/01/29 00:45:36;;;;;;;10.40;4.20;;;;;1.40;97726.40;;;;111856;1244;41583;-62
2022/01/29 00:48:05;;;;;;;10.10;4.20;;;;;1.40;97725.60;;;;111834;1242;41719;-66
2022/01/29 00:50:38;;;;;;;8.20;3.50;;;;;1.42;97728.60;;;;111890;1241;41226;-65
2022/01/29 00:53:07;;;;;;;8.90;4.00;;;;;1.40;97725.60;;;;111856;1241;41929;-63
2022/01/29 00:55:36;;;;;;;10.10;4.00;;;;;1.40;97729.40;;;;111882;1242;42583;-64
2022/01/29 00:58:06;;;;;;;8.30;3.70;;;;;1.44;97733.60;;;;111861;1241;41137;-62
2022/01/29 01:00:35;;;;;;;8.30;3.70;;;;;1.40;97730.60;;;;111731;1244;41126;-62
2022/01/29 01:03:05;;;;;;;8.80;3.60;;;;;1.30;97731.00;;;;111780;1242;41254;-63
2022/01/29 01:05:35;;;;;;;8.70;4.00;;;;;1.30;97728.40;;;;111824;1242;42532;-65
2022/01/29 01:08:07;;;;;;;8.70;4.00;;;;;1.30;97732.20;;;;111855;1241;41245;-68
2022/01/29 01:10:37;;;;;;;8.70;3.80;;;;;1.30;97732.80;;;;111600;1241;41607;-66
2022/01/29 01:13:07;;;;;;;9.30;3.90;;;;;1.30;97738.80;;;;111749;1243;41185;-64
2022/01/29 01:15:37;;;;;;;9.70;3.70;;;;;1.34;97736.00;;;;111669;1242;41130;-65
2022/01/29 01:18:07;;;;;;;8.60;4.00;;;;;1.30;97744.60;;;;111874;1242;41158;-64
2022/01/29 01:20:37;;;;;;;8.80;3.80;;;;;1.30;97741.20;;;;111853;1241;41499;-65
2022/01/29 01:23:06;;;;;;;9.70;3.80;;;;;1.28;97746.40;;;;111801;1241;41122;-64
2022/01/29 01:25:36;;;;;;;8.90;4.00;;;;;1.30;97746.40;;;;111531;1244;41188;-63
2022/01/29 01:28:06;;;;;;;10.20;4.10;;;;;1.30;97751.40;;;;111744;1242;41140;-66
2022/01/29 01:30:36;;;;;;;8.90;3.90;;;;;1.32;97747.60;;;;111758;1242;41366;-62
2022/01/29 01:33:06;;;;;;;8.40;3.60;;;;;1.30;97743.20;;;;111846;1241;41165;-68
2022/01/29 01:35:50;;;;;;;8.40;4.10;;;;;1.36;97741.60;;;;111810;1244;41129;-62
2022/01/29 01:38:24;;;;;;;7.70;3.60;;;;;1.30;97741.00;;;;111765;1244;41130;-67
2022/01/29 01:41:03;;;;;;;8.90;3.90;;;;;1.30;97744.40;;;;111768;1241;42369;-65
2022/01/29 01:43:33;;;;;;;9.80;4.10;;;;;1.30;97741.60;;;;111831;1244;41140;-63
2022/01/29 01:46:03;;;;;;;8.60;3.60;;;;;1.20;97754.60;;;;111296;1244;41142;-62
2022/01/29 01:48:33;;;;;;;8.10;3.50;;;;;1.20;97750.60;;;;111741;1244;41173;-64
2022/01/29 01:51:06;;;;;;;8.80;3.80;;;;;1.20;97750.00;;;;111771;1244;41129;-64
2022/01/29 01:53:46;;;;;;;9.00;3.70;;;;;1.30;97758.80;;;;111648;1244;42210;-64
2022/01/29 01:56:28;;;;;;;8.30;3.30;;;;;1.30;97756.00;;;;111836;1243;41391;-68
2022/01/29 01:58:58;;;;;;;6.90;3.00;;;;;1.38;97760.80;;;;111828;1244;42013;-69
2022/01/29 02:01:28;;;;;;;9.60;3.60;;;;;1.40;97761.40;;;;111819;1241;41124;-68
2022/01/29 02:03:59;;;;;;;;;;;;;1.50;97766.60;;;;111749;1242;41372;-64
2022/01/29 02:06:29;;;;;;;8.00;3.10;;;;;1.50;97774.60;;;;111754;1243;41107;-69
2022/01/29 02:09:01;;;;;;;7.40;3.20;;;;;1.50;97777.00;;;;111731;1242;42362;-69
2022/01/29 02:11:30;;;;;;;6.90;3.00;;;;;1.60;97775.80;;;;111765;1244;41187;-69
2022/01/29 02:14:01;;;;;;;6.40;2.90;;;;;1.60;97779.20;;;;111786;1244;41196;-66
2022/01/29 02:16:31;;;;;;;6.50;2.70;;;;;1.68;97782.80;;;;111772;1242;41178;-66
2022/01/29 02:19:01;;;;;;;7.40;3.40;;;;;1.70;97779.20;;;;111727;1241;42020;-66
2022/01/29 02:21:36;;;;;;;7.10;2.80;;;;;1.70;97785.80;;;;111698;1243;41145;-62
2022/01/29 02:24:07;;;;;;;7.50;3.20;;;;;1.70;97787.40;;;;111792;1241;41151;-64
2022/01/29 02:26:37;;;;;;;7.40;3.10;;;;;1.76;97788.60;;;;111737;1241;41217;-63
2022/01/29 02:29:06;;;;;;;6.10;2.60;;;;;1.80;97799.60;;;;111740;1244;41148;-62
2022/01/29 02:31:48;;;;;;;9.30;3.40;;;;;1.80;97796.60;;;;111804;1241;42390;-67
2022/01/29 02:34:19;;;;;;;8.10;3.50;;;;;1.70;97803.00;;;;111750;1241;41927;-62
2022/01/29 02:36:50;;;;;;;7.40;2.90;;;;;1.74;97809.60;;;;111603;1243;41242;-63
2022/01/29 02:39:21;;;;;;;7.20;2.90;;;;;1.70;97814.40;;;;111558;1244;41761;-62
2022/01/29 02:41:50;;;;;;;7.80;3.00;;;;;1.72;97811.00;;;;111532;1244;41148;-62
2022/01/29 02:44:22;;;;;;;7.60;2.80;;;;;1.80;97812.60;;;;111791;1244;42285;-62
2022/01/29 02:46:57;;;;;;;7.30;2.90;;;;;1.80;97812.60;;;;111820;1244;41249;-63
2022/01/29 02:49:27;;;;;;;8.90;3.30;;;;;1.90;97818.80;;;;111821;1243;41426;-62
2022/01/29 02:51:58;;;;;;;7.20;3.00;;;;;1.90;97823.80;;;;111887;1241;41266;-63
2022/01/29 02:54:28;;;;;;;6.50;2.90;;;;;1.90;97828.00;;;;111800;1244;41242;-63
2022/01/29 02:56:58;;;;;;;7.80;3.20;;;;;1.90;97819.60;;;;111591;1244;41607;-63
2022/01/29 02:59:27;;;;;;;9.30;3.20;;;;;1.90;97820.80;;;;111766;1244;41263;-61
2022/01/29 03:01:58;;;;;;;7.30;3.00;;;;;1.90;97823.20;;;;111727;1241;41354;-61
2022/01/29 03:04:27;;;;;;;6.70;3.10;;;;;1.90;97824.60;;;;111396;1244;41245;-64
2022/01/29 03:06:57;;;;;;;7.80;3.60;;;;;1.86;97834.00;;;;111804;1241;41137;-63
2022/01/29 03:09:27;;;;;;;7.10;3.10;;;;;1.80;97832.60;;;;111692;1242;41266;-66
2022/01/29 03:11:58;;;;;;;7.90;3.20;;;;;1.80;97841.00;;;;111848;1241;41174;-67
2022/01/29 03:14:29;;;;;;;8.20;3.10;;;;;1.80;97843.80;;;;111418;1244;41266;-68
2022/01/29 03:17:00;;;;;;;7.00;3.20;;;;;1.80;97842.00;;;;111564;1244;41574;-67
2022/01/29 03:19:31;;;;;;;7.90;3.20;;;;;1.80;97843.60;;;;111861;1241;41138;-66
2022/01/29 03:22:00;;;;;;;7.60;3.00;;;;;1.80;97840.40;;;;111553;1244;41248;-66
2022/01/29 03:24:30;;;;;;;7.30;2.80;;;;;1.80;97846.80;;;;111765;1241;41154;-65
2022/01/29 03:27:00;;;;;;;7.20;2.90;;;;;1.80;97849.00;;;;111807;1244;41674;-67
2022/01/29 03:29:31;;;;;;;7.40;3.10;;;;;1.64;97858.80;;;;111563;1243;41257;-66
2022/01/29 03:32:01;;;;;;;7.50;3.30;;;;;1.70;97856.60;;;;111645;1241;41157;-65
2022/01/29 03:34:30;;;;;;;7.60;3.00;;;;;1.70;97859.80;;;;111779;1244;41149;-66
2022/01/29 03:37:00;;;;;;;6.40;2.90;;;;;1.70;97863.80;;;;111666;1244;41156;-68
2022/01/29 03:39:33;;;;;;;7.30;3.00;;;;;1.70;97862.00;;;;111893;1241;42197;-64
2022/01/29 03:42:07;;;;;;;6.60;2.80;;;;;1.60;97866.40;;;;111926;1242;41145;-62
2022/01/29 03:44:37;;;;;;;6.60;2.80;;;;;1.60;97868.20;;;;111857;1244;41134;-63
2022/01/29 03:47:07;;;;;;;7.00;2.90;;;;;1.60;97874.20;;;;111839;1243;41315;-66
2022/01/29 03:49:36;;;;;;;6.90;2.90;;;;;1.60;97873.40;;;;111845;1243;41238;-62
2022/01/29 03:52:06;;;;;;;7.60;2.90;;;;;1.60;97872.60;;;;111723;1242;41248;-66
2022/01/29 03:54:36;;;;;;;7.60;3.00;;;;;1.50;97874.80;;;;111818;1243;42485;-67
2022/01/29 03:57:05;;;;;;;7.20;2.70;;;;;1.54;97878.80;;;;111885;1244;41705;-62
2022/01/29 03:59:35;;;;;;;7.00;2.80;;;;;1.58;97880.20;;;;111567;1242;41599;-65
2022/01/29 04:02:05;;;;;;;6.50;2.60;;;;;1.60;97884.00;;;;111748;1242;41194;-64
2022/01/29 04:04:34;;;;;;;7.70;3.20;;;;;1.60;97884.80;;;;111804;1242;41311;-66
2022/01/29 04:07:11;;;;;;;8.10;3.10;;;;;1.60;97885.00;;;;111789;1243;41895;-68
2022/01/29 04:09:47;;;;;;;7.50;3.00;;;;;1.56;97883.60;;;;111830;1241;41266;-66
2022/01/29 04:12:17;;;;;;;8.60;3.40;;;;;1.48;97884.20;;;;111792;1241;42410;-63
2022/01/29 04:14:46;;;;;;;7.50;3.00;;;;;1.42;97891.80;;;;111854;1241;41246;-64
2022/01/29 04:17:16;;;;;;;7.80;3.10;;;;;1.40;97892.60;;;;111745;1241;41139;-62
2022/01/29 04:19:46;;;;;;;7.00;2.90;;;;;1.48;97895.40;;;;111872;1241;41155;-65
2022/01/29 04:22:15;;;;;;;7.40;3.00;;;;;1.50;97903.60;;;;111788;1241;41921;-62
2022/01/29 04:24:46;;;;;;;6.60;2.90;;;;;1.50;97902.60;;;;111832;1243;41251;-62
2022/01/29 04:27:20;;;;;;;8.80;3.40;;;;;1.50;97900.20;;;;111828;1241;41840;-66
2022/01/29 04:30:00;;;;;;;8.10;3.00;;;;;1.50;97906.60;;;;111874;1241;41187;-64
2022/01/29 04:32:55;;;;;;;6.70;2.80;;;;;1.50;97907.60;;;;111691;1242;41260;-64
2022/01/29 04:35:20;;;;;;;7.90;2.80;;;;;1.60;97911.20;;;;111844;1241;41247;-63
2022/01/29 04:37:50;;;;;;;7.60;3.10;;;;;1.60;97916.80;;;;111779;1241;41499;-64
2022/01/29 04:40:20;;;;;;;6.70;2.80;;;;;1.60;97919.60;;;;111781;1241;41910;-62
2022/01/29 04:42:49;;;;;;;8.40;3.40;;;;;1.58;97914.40;;;;111824;1241;42156;-62
2022/01/29 04:45:20;;;;;;;8.60;3.40;;;;;1.60;97917.60;;;;111741;1243;41886;-62
2022/01/29 04:47:49;;;;;;;7.40;2.80;;;;;1.60;97919.60;;;;111833;1242;41549;-64
2022/01/29 04:50:18;;;;;;;7.10;3.10;;;;;1.52;97923.60;;;;111777;1241;41361;-65
2022/01/29 04:52:48;;;;;;;7.70;3.10;;;;;1.40;97917.60;;;;111830;1242;41145;-61
2022/01/29 04:55:17;;;;;;;7.20;3.10;;;;;1.50;97928.00;;;;111778;1244;41260;-63
2022/01/29 04:57:47;;;;;;;6.90;2.80;;;;;1.48;97926.00;;;;111850;1241;41159;-64
2022/01/29 05:00:20;;;;;;;7.30;3.00;;;;;1.50;97929.60;;;;111532;1244;41575;-62
2022/01/29 05:02:55;;;;;;;7.00;3.00;;;;;1.40;97928.20;;;;111773;1241;41928;-62
2022/01/29 05:05:26;;;;;;;6.30;2.60;;;;;1.44;97934.40;;;;111792;1244;41615;-65
2022/01/29 05:07:55;;;;;;;8.20;3.20;;;;;1.36;97944.00;;;;111683;1241;41157;-63
2022/01/29 05:10:25;;;;;;;9.10;3.20;;;;;1.40;97948.40;;;;111753;1241;41710;-70
2022/01/29 05:13:09;;;;;;;8.10;3.10;;;;;1.30;97948.20;;;;111725;1242;41232;-67
2022/01/29 05:15:43;;;;;;;8.30;3.30;;;;;1.40;97942.60;;;;111759;1241;41145;-66
2022/01/29 05:29:39;;;;;;;7.40;3.00;;;;;1.60;97950.80;;;;111484;1241;42459;-62
2022/01/29 05:32:11;;;;;;;7.30;3.20;;;;;1.60;97946.40;;;;111589;1244;41607;-67
2022/01/29 05:34:41;;;;;;;7.70;3.00;;;;;1.62;97952.20;;;;111636;1242;41596;-65
2022/01/29 05:37:30;;;;;;;9.50;3.90;;;;;1.70;97953.80;;;;111700;1244;41130;-64
2022/01/29 05:39:59;;;;;;;6.80;3.10;;;;;1.30;97959.60;;;;111605;1243;41238;-66
2022/01/29 05:42:29;;;;;;;8.40;3.20;;;;;1.50;97964.60;;;;111663;1243;42248;-65
2022/01/29 05:44:58;;;;;;;7.50;3.10;;;;;1.48;97965.20;;;;111784;1242;41253;-64
2022/01/29 05:47:27;;;;;;;8.10;3.60;;;;;1.50;97969.00;;;;111596;1241;41257;-64
2022/01/29 05:49:57;;;;;;;10.10;3.50;;;;;1.50;97979.80;;;;111727;1244;41129;-65
2022/01/29 05:52:26;;;;;;;8.70;3.30;;;;;1.50;97978.40;;;;111786;1242;41136;-65
2022/01/29 05:54:57;;;;;;;8.10;3.40;;;;;1.54;97978.00;;;;111741;1244;41126;-62
2022/01/29 05:57:27;;;;;;;8.80;3.20;;;;;1.60;97981.60;;;;111659;1241;41134;-63
2022/01/29 05:59:56;;;;;;;7.30;3.20;;;;;1.60;97986.40;;;;111516;1244;41646;-65
2022/01/29 06:02:26;;;;;;;7.70;3.10;;;;;1.60;97989.80;;;;111742;1241;42359;-64
2022/01/29 06:04:55;;;;;;;8.30;3.50;;;;;1.60;97994.60;;;;111745;1241;41589;-64
2022/01/29 06:07:24;;;;;;;7.90;3.20;;;;;1.62;97995.60;;;;111621;1242;41809;-62
2022/01/29 06:09:53;;;;;;;7.00;2.90;;;;;1.68;97997.60;;;;111140;1247;41125;-63
2022/01/29 06:12:22;;;;;;;8.40;3.30;;;;;1.70;97999.40;;;;111679;1244;41148;-62
2022/01/29 06:14:52;;;;;;;6.50;2.90;;;;;1.70;98005.00;;;;111744;1241;41616;-63
2022/01/29 06:17:21;;;;;;;8.30;3.40;;;;;1.70;98007.40;;;;111646;1241;41183;-65
2022/01/29 06:19:52;;;;;;;8.70;3.30;;;;;1.60;98011.00;;;;111606;1241;41140;-64
2022/01/29 06:22:23;;;;;;;6.40;3.10;;;;;1.60;98016.00;;;;111500;1243;41580;-66
2022/01/29 06:24:52;;;;;;;7.40;3.20;;;;;1.60;98021.60;;;;111580;1242;42277;-63
2022/01/29 06:27:21;;;;;;;8.00;3.20;;;;;1.54;98021.80;;;;111762;1242;41148;-64
2022/01/29 06:29:50;;;;;;;7.50;3.20;;;;;1.58;98029.00;;;;111292;1245;41653;-62
2022/01/29 06:32:19;;;;;;;8.60;3.40;;;;;1.60;98039.40;;;;111446;1244;42081;-62
2022/01/29 06:34:48;;;;;;;9.10;3.50;;;;;1.52;98036.00;;;;111694;1242;41171;-66
2022/01/29 06:37:17;;;;;;;9.50;3.50;;;;;1.60;98035.60;;;;111531;1242;42648;-65
2022/01/29 06:39:50;;;;;;;9.10;3.60;;;;;1.52;98030.60;;;;111733;1241;42329;-65
2022/01/29 06:42:19;;;;;;;7.90;3.30;;;;;1.50;98032.80;;;;111446;1244;41717;-66
2022/01/29 06:44:48;;;;;;;8.00;3.40;;;;;1.58;98031.20;;;;111816;1243;41125;-65
2022/01/29 06:47:17;;;;;;;7.90;3.40;;;;;1.60;98034.20;;;;111747;1241;41243;-65
2022/01/29 06:49:46;;;;;;;6.60;3.10;;;;;1.60;98040.20;;;;111481;1243;41367;-65
2022/01/29 06:52:15;;;;;;;7.70;3.30;;;;;1.60;98035.20;;;;111618;1243;41161;-64
2022/01/29 06:54:44;;;;;;;7.70;3.20;;;;;1.60;98039.40;;;;111605;1241;41132;-64
2022/01/29 06:57:13;;;;;;;9.20;3.30;;;;;1.60;98037.40;;;;111784;1241;41157;-63
2022/01/29 06:59:42;;;;;;;8.50;3.50;;;;;1.50;98042.80;;;;111540;1243;41134;-63
2022/01/29 07:02:11;;;;;;;7.70;3.50;;;;;1.40;98053.20;;;;111768;1241;41131;-61
2022/01/29 07:04:41;;;;;;;8.60;3.50;;;;;1.48;98058.20;;;;111759;1241;42470;-63
2022/01/29 07:07:10;;;;;;;7.40;3.20;;;;;1.50;98062.80;;;;111755;1241;41152;-62
2022/01/29 07:09:39;;;;;;;9.20;3.50;;;;;1.56;98062.40;;;;111689;1241;41527;-64
2022/01/29 07:12:10;;;;;;;7.80;3.10;;;;;1.58;98065.20;;;;111761;1241;41849;-64
2022/01/29 07:14:40;;;;;;;9.60;3.90;;;;;1.66;98073.20;;;;111699;1241;41247;-62
2022/01/29 07:17:11;;;;;;;9.40;3.80;;;;;1.70;98065.80;;;;111667;1240;41137;-64
2022/01/29 07:19:40;;;;;;;9.30;3.60;;;;;1.80;98073.60;;;;111594;1244;41114;-62
2022/01/29 07:22:09;;;;;;;9.20;3.60;;;;;1.90;98073.80;;;;111560;1243;41599;-64
2022/01/29 07:24:39;;;;;;;9.40;3.30;;;;;2.00;98065.00;;;;111667;1244;41594;-65
2022/01/29 07:27:08;;;;;;;9.20;3.50;;;;;1.92;98064.20;;;;111534;1243;42543;-65
2022/01/29 07:29:37;;;;;;;9.20;3.80;;;;;1.98;98067.00;;;;111709;1242;41153;-62
2022/01/29 07:32:07;;;;;;;8.90;3.70;;;;;2.10;98054.00;;;;111503;1243;41455;-65
2022/01/29 07:34:36;;;;;;;12.00;5.10;;;;;2.20;98049.40;;;;111771;1242;41563;-65
2022/01/29 07:37:05;;;;;;;21.80;10.20;;;;;2.30;98053.40;;;;111883;1241;41735;-66
2022/01/29 07:39:35;;;;;;;16.00;7.40;;;;;2.40;98054.80;;;;111858;1242;41247;-65
2022/01/29 07:42:05;;;;;;;21.40;10.00;;;;;2.52;98058.60;;;;111788;1242;41368;-65
2022/01/29 07:44:34;;;;;;;29.00;14.90;;;;;2.70;98053.60;;;;111650;1241;41131;-66
2022/01/29 07:47:03;;;;;;;13.70;6.80;;;;;2.76;98055.20;;;;111783;1241;41156;-67
2022/01/29 07:49:32;;;;;;;13.50;6.70;;;;;2.86;98051.20;;;;111715;1241;41317;-64
2022/01/29 07:52:01;;;;;;;8.20;3.50;;;;;2.84;98054.60;;;;111772;1242;41126;-65
2022/01/29 07:54:30;;;;;;;8.20;3.30;;;;;2.86;98055.20;;;;111753;1241;42055;-63
2022/01/29 07:56:59;;;;;;;8.40;3.70;;;;;2.68;98049.20;;;;111511;1244;41602;-66
2022/01/29 07:59:29;;;;;;;8.30;3.60;;;;;2.84;98050.60;;;;111859;1241;42373;-63
2022/01/29 08:01:57;;;;;;;8.00;3.40;;;;;3.02;98051.40;;;;111843;1243;41195;-66
2022/01/29 08:04:26;;;;;;;8.50;3.30;;;;;3.02;98048.80;;;;111813;1242;41754;-64
2022/01/29 08:06:55;;;;;;;9.40;3.40;;;;;3.24;98051.80;;;;111812;1241;41318;-63
2022/01/29 08:09:25;;;;;;;9.80;3.70;;;;;3.16;98051.00;;;;111829;1243;41117;-66
2022/01/29 08:11:54;;;;;;;8.10;3.20;;;;;2.60;98063.00;;;;111830;1241;41564;-66
2022/01/29 08:14:24;;;;;;;8.00;3.40;;;;;2.60;98062.60;;;;111563;1242;41606;-63
2022/01/29 08:16:53;;;;;;;7.70;3.30;;;;;2.78;98069.00;;;;111767;1241;42207;-66
2022/01/29 08:19:22;;;;;;;8.60;3.10;;;;;2.66;98071.40;;;;111741;1242;41250;-67
2022/01/29 08:21:51;;;;;;;8.60;3.20;;;;;1.92;98080.00;;;;111446;1241;41139;-63
2022/01/29 08:24:20;;;;;;;6.50;2.80;;;;;2.30;98078.60;;;;111736;1241;41266;-65
2022/01/29 08:26:49;;;;;;;7.40;3.10;;;;;2.34;98088.80;;;;111832;1241;41142;-64
2022/01/29 08:29:18;;;;;;;6.60;3.00;;;;;2.50;98087.00;;;;111860;1242;41938;-64
2022/01/29 08:31:47;;;;;;;9.10;3.40;;;;;2.60;98091.60;;;;111821;1241;41147;-64
2022/01/29 08:34:17;;;;;;;7.50;3.20;;;;;2.12;98080.60;;;;111641;1241;41162;-65
2022/01/29 08:36:46;;;;;;;7.90;3.50;;;;;2.44;98083.60;;;;111816;1241;42421;-64
2022/01/29 08:39:15;;;;;;;9.30;3.90;;;;;1.90;98093.60;;;;111898;1241;41232;-65
2022/01/29 08:41:44;;;;;;;9.90;3.40;;;;;1.78;98099.20;;;;111850;1242;41128;-65
2022/01/29 08:44:13;;;;;;;6.90;3.00;;;;;2.16;98091.00;;;;111782;1241;41198;-64
2022/01/29 08:46:42;;;;;;;7.40;3.20;;;;;2.38;98091.40;;;;111841;1242;41114;-63
2022/01/29 08:49:21;;;;;;;8.60;3.40;;;;;4.06;98068.40;;;;107926;1279;542111;-64
2022/01/29 08:51:50;;;;;;;7.00;3.10;;;;;4.48;98078.80;;;;110103;1259;41163;-66
2022/01/29 08:54:19;;;;;;;7.00;3.30;;;;;6.10;98069.80;;;;110093;1260;42151;-61
2022/01/29 08:56:48;;;;;;;8.50;3.60;;;;;5.40;98074.60;;;;110058;1259;41354;-65
2022/01/29 08:59:17;;;;;;;8.70;3.20;;;;;6.30;98070.20;;;;110049;1260;41197;-63
2022/01/29 09:01:46;;;;;;;9.50;4.00;;;;;7.20;98070.20;;;;110598;1253;41498;-63
2022/01/29 09:04:15;;;;;;;9.00;3.90;;;;;8.06;98052.00;;;;110631;1250;42407;-64
2022/01/29 09:06:44;;;;;;;10.00;3.80;;;;;8.28;98063.60;;;;110815;1250;41212;-63
2022/01/29 09:09:20;;;;;;;6.30;2.90;;;;;7.98;98071.80;;;;110765;1250;41443;-62
2022/01/29 09:11:50;;;;;;;7.00;3.00;;;;;5.38;98112.60;;;;110823;1252;41623;-61
2022/01/29 09:14:20;;;;;;;7.00;2.70;;;;;4.36;98111.60;;;;110826;1251;41156;-61
2022/01/29 09:16:49;;;;;;;7.50;3.10;;;;;3.08;98117.60;;;;110877;1250;41137;-62
2022/01/29 09:19:18;;;;;;;6.90;2.90;;;;;3.62;98118.00;;;;110760;1251;41144;-63
2022/01/29 09:21:47;;;;;;;7.00;2.60;;;;;3.70;98122.60;;;;110823;1250;41927;-63
2022/01/29 09:24:16;;;;;;;7.80;3.20;;;;;3.70;98122.20;;;;110866;1250;41134;-64
2022/01/29 09:26:45;;;;;;;8.40;3.10;;;;;3.50;98126.60;;;;110789;1251;42244;-61
2022/01/29 09:29:14;;;;;;;8.10;3.20;;;;;3.60;98118.20;;;;110733;1251;41315;-62
2022/01/29 09:31:43;;;;;;;7.40;3.20;;;;;3.48;98122.20;;;;110788;1250;41142;-65
2022/01/29 09:34:12;;;;;;;10.10;3.70;;;;;3.12;98131.20;;;;110749;1250;41497;-61
2022/01/29 09:36:42;;;;;;;11.40;3.70;;;;;2.90;98118.80;;;;110836;1250;41876;-64
2022/01/29 09:39:11;;;;;;;7.70;3.10;;;;;2.98;98125.20;;;;110766;1251;42408;-63
2022/01/29 09:41:44;;;;;;;7.20;3.00;;;;;2.94;98125.40;;;;110829;1251;41462;-63
2022/01/29 09:44:13;;;;;;;10.30;3.60;;;;;2.74;98128.60;;;;110824;1251;41310;-64
2022/01/29 09:46:44;;;;;;;9.80;3.40;;;;;2.94;98121.40;;;;110795;1250;41596;-61
2022/01/29 09:49:14;;;;;;;8.90;3.60;;;;;2.76;98116.40;;;;110872;1251;41246;-64
2022/01/29 09:51:43;;;;;;;7.80;3.20;;;;;4.52;98077.20;;;;110814;1250;41516;-63
2022/01/29 09:54:12;;;;;;;7.00;3.10;;;;;4.86;98071.00;;;;110782;1250;41448;-63
2022/01/29 09:56:42;;;;;;;13.70;3.10;;;;;6.06;98085.00;;;;110588;1251;41299;-64
2022/01/29 09:59:11;;;;;;;8.00;3.10;;;;;6.18;98084.20;;;;110847;1250;41199;-61
2022/01/29 10:01:45;;;;;;;6.80;2.80;;;;;4.72;98092.80;;;;110834;1250;41265;-63
2022/01/29 10:04:14;;;;;;;7.00;3.00;;;;;4.32;98083.60;;;;110803;1251;41157;-62
2022/01/29 10:06:46;;;;;;;6.90;2.80;;;;;6.50;98058.20;;;;110858;1250;41154;-62
2022/01/29 10:09:34;;;;;;;7.30;2.80;;;;;8.34;98056.60;;;;110820;1250;41147;-64
2022/01/29 10:12:21;;;;;;;6.40;2.60;;;;;10.30;98035.80;;;;110726;1250;41475;-62
2022/01/29 10:15:01;;;;;;;8.10;3.10;;;;;8.18;98044.60;;;;110683;1251;41824;-61
2022/01/29 10:17:41;;;;;;;8.20;2.60;;;;;9.80;98048.80;;;;110839;1250;41143;-62
2022/01/29 10:20:18;;;;;;;6.80;2.70;;;;;6.26;98072.80;;;;110732;1251;41632;-64
2022/01/29 10:22:54;;;;;;;11.20;3.90;;;;;7.40;98074.40;;;;110728;1251;41263;-62
2022/01/29 10:25:29;;;;;;;8.60;3.30;;;;;6.76;98076.80;;;;110857;1250;41603;-63
2022/01/29 10:28:12;;;;;;;6.90;2.90;;;;;7.00;98077.40;;;;110826;1251;42627;-64
2022/01/29 10:30:50;;;;;;;8.90;3.40;;;;;6.80;98085.20;;;;110718;1251;41266;-62
2022/01/29 10:33:27;;;;;;;8.50;3.40;;;;;5.90;98093.00;;;;110758;1252;41159;-61
2022/01/29 10:36:09;;;;;;;8.40;2.80;;;;;5.76;98097.80;;;;110781;1250;41126;-62
2022/01/29 10:38:41;;;;;;;8.60;2.80;;;;;6.08;98097.60;;;;110784;1251;41933;-61
2022/01/29 10:41:20;;;;;;;8.90;3.10;;;;;5.76;98098.00;;;;110799;1250;42365;-61
2022/01/29 10:44:12;;;;;;;10.50;3.70;;;;;4.98;98102.80;;;;110773;1250;41332;-62
2022/01/29 10:46:49;;;;;;;9.70;3.40;;;;;4.38;98107.20;;;;110842;1250;41163;-62
2022/01/29 10:49:28;;;;;;;9.00;3.30;;;;;4.48;98106.60;;;;110858;1251;41499;-63
2022/01/29 10:52:08;;;;;;;7.40;3.20;;;;;4.66;98095.20;;;;110842;1250;41142;-62
2022/01/29 10:54:39;;;;;;;6.30;2.80;;;;;4.66;98105.20;;;;110657;1251;41270;-60
2022/01/29 10:57:15;;;;;;;27.00;8.30;;;;;4.90;98105.60;;;;110771;1250;41146;-59
2022/01/29 10:59:49;;;;;;;17.20;4.90;;;;;5.90;98070.20;;;;110733;1250;41272;-61
2022/01/29 11:02:20;;;;;;;16.60;4.60;;;;;8.58;98060.80;;;;110902;1251;41897;-61
2022/01/29 11:04:49;;;;;;;17.00;5.30;;;;;10.20;98073.80;;;;110776;1250;41251;-64
2022/01/29 11:07:23;;;;;;;24.00;7.20;;;;;10.20;98071.60;;;;110646;1250;41618;-62
2022/01/29 11:09:53;;;;;;;44.50;10.90;;;;;10.08;98060.00;;;;110779;1251;41718;-61
2022/01/29 11:12:27;;;;;;;53.80;14.00;;;;;11.20;98068.80;;;;110680;1250;41511;-62
2022/01/29 11:14:59;;;;;;;16.20;5.70;;;;;11.66;98053.20;;;;110808;1250;41689;-63
2022/01/29 11:17:29;;;;;;;14.60;4.80;;;;;12.26;98042.60;;;;110832;1250;42180;-63
2022/01/29 11:20:00;;;;;;;8.10;2.70;;;;;14.18;98036.60;;;;110890;1250;41133;-60
2022/01/29 11:22:35;;;;;;;6.90;2.80;;;;;16.38;98022.40;;;;110813;1251;42379;-60
2022/01/29 11:25:07;;;;;;;6.90;2.70;;;;;14.92;98020.40;;;;110518;1251;42144;-61
2022/01/29 11:27:37;;;;;;;6.70;2.60;;;;;14.06;98046.80;;;;110530;1253;41556;-61
2022/01/29 11:30:10;;;;;;;5.30;2.30;;;;;11.94;98036.60;;;;110757;1251;41625;-62
2022/01/29 11:32:43;;;;;;;6.80;2.80;;;;;12.70;98060.00;;;;110744;1251;41615;-62
2022/01/29 11:35:30;;;;;;;5.10;2.30;;;;;10.84;98073.40;;;;110538;1253;42166;-63
2022/01/29 11:38:07;;;;;;;6.20;2.60;;;;;8.62;98079.00;;;;110472;1251;41153;-65
2022/01/29 11:40:44;;;;;;;8.40;2.80;;;;;9.22;98084.80;;;;110710;1252;41653;-62
2022/01/29 11:43:19;;;;;;;7.90;3.00;;;;;8.88;98093.40;;;;110409;1253;41603;-62
2022/01/29 11:46:07;;;;;;;8.50;3.30;;;;;7.84;98105.60;;;;110559;1251;41739;-62
2022/01/29 11:48:41;;;;;;;7.00;2.60;;;;;8.02;98092.20;;;;110575;1253;41905;-62
2022/01/29 11:51:11;;;;;;;5.70;2.30;;;;;9.90;98074.40;;;;110819;1250;41143;-61
2022/01/29 11:53:49;;;;;;;7.90;2.70;;;;;8.48;98102.60;;;;110659;1253;41379;-63
2022/01/29 11:56:32;;;;;;;7.00;2.90;;;;;8.16;98101.80;;;;110831;1250;41155;-60
2022/01/29 11:59:26;;;;;;;6.90;2.80;;;;;5.82;98112.20;;;;110806;1250;41262;-64
2022/01/29 12:01:57;;;;;;;6.50;2.50;;;;;5.86;98124.40;;;;110703;1250;41205;-61
2022/01/29 12:04:45;;;;;;;;;;;;;5.66;98128.80;;;;110813;1250;42124;-62
2022/01/29 12:07:23;;;;;;;7.90;3.10;;;;;5.60;98127.00;;;;110827;1250;42398;-63
2022/01/29 12:10:08;;;;;;;7.40;2.60;;;;;4.78;98121.60;;;;110560;1253;41636;-60
2022/01/29 12:12:38;;;;;;;6.20;2.40;;;;;6.56;98120.60;;;;110618;1252;41715;-61
2022/01/29 12:15:10;;;;;;;8.90;2.90;;;;;6.88;98113.80;;;;110799;1251;41186;-62
2022/01/29 12:17:44;;;;;;;9.30;3.30;;;;;6.26;98109.80;;;;110833;1250;41268;-61
2022/01/29 12:20:18;;;;;;;7.60;3.00;;;;;5.08;98114.80;;;;110867;1251;41248;-61
2022/01/29 12:22:49;;;;;;;6.60;2.70;;;;;5.82;98102.20;;;;110623;1250;41151;-61
2022/01/29 12:25:20;;;;;;;8.00;2.90;;;;;6.34;98100.40;;;;110839;1250;41643;-61
2022/01/29 12:27:49;;;;;;;;;;;;;7.20;98087.40;;;;110828;1250;41184;-60
2022/01/29 12:30:31;;;;;;;6.50;2.50;;;;;9.32;98054.60;;;;110774;1250;41130;-59
2022/01/29 12:33:09;;;;;;;;;;;;;12.62;98052.40;;;;110725;1251;41193;-64
2022/01/29 12:35:49;;;;;;;8.40;2.50;;;;;12.84;98062.20;;;;110762;1252;41156;-63
2022/01/29 12:38:25;;;;;;;6.50;2.50;;;;;11.36;98060.40;;;;110799;1251;41143;-62
2022/01/29 12:40:57;;;;;;;6.20;2.10;;;;;12.32;98038.40;;;;110781;1250;41678;-64
2022/01/29 12:43:37;;;;;;;6.00;2.20;;;;;16.10;98033.20;;;;110728;1250;41381;-62
2022/01/29 12:46:18;;;;;;;4.90;2.00;;;;;18.72;98037.40;;;;110683;1251;41153;-62
2022/01/29 12:48:58;;;;;;;7.50;2.60;;;;;17.86;98045.80;;;;110660;1250;41153;-61